Time;durP1;ratioP1;P1;durP2;ratioP2;P2;SDS_P1;SDS_P2;PMS_P1;PMS_P2;Temp;Humidity;BMP_temperature;BMP_pressure;BME280_temperature;BME280_humidity;BME280_pressure;Samples;Min_cycle;Max_cycle;Signal;HPM_P1;HPM_P2
2021/03/28 00:00:59;;;;;;;9.13;5.63;;;3.50;1.00;;;;;;5032764;28;20255;-76
2021/03/28 00:03:31;;;;;;;8.40;4.85;;;3.50;1.00;;;;;;5050671;28;24192;-77
2021/03/28 00:06:14;;;;;;;9.32;5.30;;;3.50;1.00;;;;;;5039502;28;20311;-76
2021/03/28 00:08:44;;;;;;;7.53;5.13;;;3.50;1.00;;;;;;5060551;28;20224;-75
2021/03/28 00:11:18;;;;;;;10.75;6.18;;;3.40;1.00;;;;;;5036050;28;20228;-75
2021/03/28 00:13:48;;;;;;;8.20;6.25;;;3.40;1.00;;;;;;5053446;28;22610;-76
2021/03/28 00:16:16;;;;;;;13.65;6.28;;;3.40;1.00;;;;;;5033466;28;20256;-76
2021/03/28 00:18:58;;;;;;;9.00;6.00;;;3.40;1.00;;;;;;5057316;28;20273;-76
2021/03/28 00:21:28;;;;;;;8.23;5.35;;;3.40;1.00;;;;;;5048264;28;20275;-76
2021/03/28 00:23:58;;;;;;;8.60;6.15;;;3.50;1.00;;;;;;5053976;28;20223;-76
2021/03/28 00:26:37;;;;;;;8.30;6.07;;;3.40;1.00;;;;;;5043307;28;20775;-76
2021/03/28 00:29:10;;;;;;;8.63;6.60;;;3.40;1.00;;;;;;5071372;28;20393;-77
2021/03/28 00:31:40;;;;;;;7.40;4.82;;;3.40;1.00;;;;;;5036119;28;20267;-76
2021/03/28 00:34:23;;;;;;;10.10;6.47;;;3.40;1.00;;;;;;5052690;28;20209;-75
2021/03/28 00:36:51;;;;;;;9.32;6.53;;;3.30;1.00;;;;;;5043407;28;20315;-77
2021/03/28 00:39:34;;;;;;;8.18;5.70;;;3.30;1.00;;;;;;5052892;28;20359;-75
2021/03/28 00:42:05;;;;;;;12.43;6.00;;;3.30;1.00;;;;;;5036558;28;20240;-76
2021/03/28 00:44:34;;;;;;;14.00;5.75;;;3.40;1.00;;;;;;5051112;28;20379;-75
2021/03/28 00:47:05;;;;;;;6.95;5.60;;;3.40;1.00;;;;;;5037511;28;20233;-77
2021/03/28 00:49:36;;;;;;;10.00;5.78;;;3.40;1.00;;;;;;5049157;28;20319;-78
2021/03/28 00:52:05;;;;;;;9.00;6.30;;;3.30;1.00;;;;;;5037612;28;20252;-75
2021/03/28 00:54:42;;;;;;;7.65;5.95;;;3.30;1.00;;;;;;5056383;28;20225;-78
2021/03/28 00:57:17;;;;;;;8.70;5.78;;;3.30;1.00;;;;;;5045050;28;20220;-79
2021/03/28 00:59:58;;;;;;;8.25;5.10;;;3.20;1.00;;;;;;5053161;28;22600;-76
2021/03/28 01:02:31;;;;;;;9.30;6.32;;;3.20;1.00;;;;;;5044736;28;22224;-74
2021/03/28 01:05:28;;;;;;;7.90;5.60;;;3.20;1.00;;;;;;5054747;28;20548;-75
2021/03/28 01:08:01;;;;;;;7.50;5.78;;;3.10;1.00;;;;;;5034505;28;20220;-76
2021/03/28 01:10:58;;;;;;;9.18;5.90;;;3.10;1.00;;;;;;5055180;28;20312;-77
2021/03/28 01:13:53;;;;;;;7.25;5.40;;;3.10;1.00;;;;;;5046033;28;20252;-75
2021/03/28 01:17:13;;;;;;;6.40;5.22;;;3.10;1.00;;;;;;5061132;28;20232;-76
2021/03/28 01:19:54;;;;;;;7.78;6.05;;;3.10;1.00;;;;;;5047601;28;20816;-76
2021/03/28 01:22:31;;;;;;;8.77;5.60;;;3.10;1.00;;;;;;5069942;28;20217;-77
2021/03/28 01:25:01;;;;;;;7.90;4.65;;;3.10;1.00;;;;;;5038987;28;20221;-76
2021/03/28 01:27:30;;;;;;;9.25;5.50;;;3.20;1.00;;;;;;5058597;28;20228;-75
2021/03/28 01:30:08;;;;;;;5.80;4.88;;;3.20;1.00;;;;;;5041121;28;20417;-77
2021/03/28 01:32:39;;;;;;;9.10;5.03;;;3.20;1.00;;;;;;5056488;28;20229;-76
2021/03/28 01:35:19;;;;;;;10.43;5.63;;;3.20;1.00;;;;;;5041481;28;20251;-76
2021/03/28 01:37:49;;;;;;;12.20;6.43;;;3.20;1.00;;;;;;5056712;28;20220;-76
2021/03/28 01:40:20;;;;;;;10.98;5.80;;;3.20;1.00;;;;;;5044320;28;20227;-77
2021/03/28 01:42:59;;;;;;;9.57;5.25;;;3.10;1.00;;;;;;5062723;28;20703;-76
2021/03/28 01:45:38;;;;;;;6.75;4.88;;;3.10;1.00;;;;;;5055670;28;20216;-75
2021/03/28 01:48:32;;;;;;;10.05;5.18;;;3.20;1.00;;;;;;5062595;28;20225;-76
2021/03/28 01:51:16;;;;;;;7.82;4.85;;;3.20;1.00;;;;;;5052732;28;20776;-80
2021/03/28 01:53:53;;;;;;;9.10;5.25;;;3.20;1.00;;;;;;5068805;28;20229;-79
2021/03/28 01:56:27;;;;;;;6.32;5.57;;;3.20;1.00;;;;;;5059135;28;20900;-79
2021/03/28 01:59:16;;;;;;;8.82;6.28;;;3.20;1.00;;;;;;5063669;28;20243;-79
2021/03/28 02:01:48;;;;;;;8.68;5.40;;;3.10;1.00;;;;;;5055413;28;20251;-80
2021/03/28 02:04:39;;;;;;;9.10;5.05;;;3.10;1.00;;;;;;5064630;28;20299;-79
2021/03/28 02:07:19;;;;;;;9.40;6.38;;;3.10;1.00;;;;;;5064040;28;20688;-79
2021/03/28 02:09:53;;;;;;;8.80;4.90;;;3.10;1.00;;;;;;5075847;28;20263;-80
2021/03/28 02:12:29;;;;;;;7.18;5.50;;;3.10;1.00;;;;;;5069540;28;20225;-80
2021/03/28 02:15:18;;;;;;;13.40;5.68;;;3.10;1.00;;;;;;5076531;28;20213;-80
2021/03/28 02:17:55;;;;;;;8.10;6.05;;;3.10;1.00;;;;;;5068012;28;21481;-79
2021/03/28 02:20:47;;;;;;;11.10;6.20;;;3.10;1.00;;;;;;5059704;28;21023;-79
2021/03/28 02:23:23;;;;;;;8.60;5.50;;;3.10;1.00;;;;;;5065401;28;20227;-79
2021/03/28 02:25:56;;;;;;;8.05;5.75;;;3.10;1.00;;;;;;5056464;28;20371;-80
2021/03/28 02:28:32;;;;;;;8.95;5.90;;;3.10;1.00;;;;;;5064344;28;20225;-79
2021/03/28 02:31:06;;;;;;;11.63;5.82;;;3.10;1.00;;;;;;5048664;28;20241;-78
2021/03/28 02:33:46;;;;;;;8.98;6.90;;;3.00;1.00;;;;;;5059120;28;20231;-78
2021/03/28 02:36:21;;;;;;;13.32;6.00;;;3.00;1.00;;;;;;5047954;28;20255;-79
2021/03/28 02:39:13;;;;;;;9.02;5.47;;;3.00;1.00;;;;;;5053929;28;20267;-79
2021/03/28 02:41:47;;;;;;;7.57;5.72;;;3.00;1.00;;;;;;5047027;28;20224;-79
2021/03/28 02:44:28;;;;;;;10.68;5.30;;;3.00;1.00;;;;;;5062182;28;21143;-79
2021/03/28 02:47:10;;;;;;;8.85;5.05;;;3.00;1.00;;;;;;5045316;28;20216;-78
2021/03/28 02:49:52;;;;;;;9.10;6.35;;;2.90;1.00;;;;;;5060617;28;20707;-78
2021/03/28 02:52:48;;;;;;;11.98;6.82;;;2.90;1.00;;;;;;5045842;28;20303;-79
2021/03/28 02:55:43;;;;;;;8.95;5.57;;;2.80;1.00;;;;;;5056241;28;20236;-77
2021/03/28 02:58:21;;;;;;;11.93;6.13;;;2.90;1.00;;;;;;5043910;28;21110;-75
2021/03/28 03:01:01;;;;;;;12.02;6.65;;;2.80;1.00;;;;;;5057768;28;20229;-77
2021/03/28 03:03:52;;;;;;;13.02;6.32;;;2.80;1.00;;;;;;5046782;28;20691;-76
2021/03/28 03:06:47;;;;;;;9.68;6.80;;;2.70;1.00;;;;;;5061155;28;20236;-76
2021/03/28 03:09:26;;;;;;;12.90;6.72;;;2.70;1.00;;;;;;5043638;28;20245;-73
2021/03/28 03:12:12;;;;;;;9.18;7.30;;;2.70;1.00;;;;;;5051961;28;20217;-75
2021/03/28 03:14:57;;;;;;;12.20;6.57;;;2.70;1.00;;;;;;5057503;28;20717;-75
2021/03/28 03:18:11;;;;;;;14.00;6.93;;;2.70;1.00;;;;;;5044080;28;20754;-74
2021/03/28 03:21:06;;;;;;;9.48;5.85;;;2.70;1.00;;;;;;5054668;28;20232;-76
2021/03/28 03:24:02;;;;;;;9.32;5.25;;;2.70;1.00;;;;;;5046736;28;20255;-76
2021/03/28 03:26:55;;;;;;;10.05;5.90;;;2.60;1.00;;;;;;5057909;28;20221;-76
2021/03/28 03:29:59;;;;;;;10.75;6.20;;;2.60;1.00;;;;;;5042752;28;20232;-77
2021/03/28 03:32:47;;;;;;;14.85;6.15;;;2.60;1.00;;;;;;4993224;28;20988;-76
2021/03/28 03:35:27;;;;;;;10.65;6.20;;;2.50;1.00;;;;;;5045779;28;20231;-79
2021/03/28 03:38:27;;;;;;;13.25;6.75;;;2.50;1.00;;;;;;5057343;28;20639;-79
2021/03/28 03:41:18;;;;;;;12.70;5.85;;;2.50;1.00;;;;;;5057583;28;20243;-79
2021/03/28 03:43:57;;;;;;;10.10;6.20;;;2.50;1.00;;;;;;5050944;28;20225;-79
2021/03/28 03:46:46;;;;;;;11.20;5.72;;;2.40;1.00;;;;;;5058531;28;20227;-79
2021/03/28 03:49:42;;;;;;;11.57;6.80;;;2.40;1.00;;;;;;5058936;28;20225;-77
2021/03/28 03:52:30;;;;;;;11.85;6.93;;;2.40;1.00;;;;;;5071135;28;20221;-78
2021/03/28 03:55:02;;;;;;;8.85;6.20;;;2.40;1.00;;;;;;5048847;28;20260;-77
2021/03/28 03:57:39;;;;;;;11.32;6.30;;;2.30;1.00;;;;;;5061494;28;20968;-79
2021/03/28 04:00:19;;;;;;;10.02;6.10;;;2.30;1.00;;;;;;5047966;28;20236;-79
2021/03/28 04:02:53;;;;;;;11.43;6.70;;;2.30;1.00;;;;;;5057688;28;20677;-78
2021/03/28 04:05:34;;;;;;;11.15;6.88;;;2.30;1.00;;;;;;5049002;28;20224;-79
2021/03/28 04:08:28;;;;;;;8.95;5.80;;;2.30;1.00;;;;;;5058964;28;20240;-77
2021/03/28 04:11:07;;;;;;;9.15;6.47;;;2.40;1.00;;;;;;5065057;28;20229;-78
2021/03/28 04:13:43;;;;;;;9.35;6.78;;;2.40;1.00;;;;;;5060734;28;21163;-78
2021/03/28 04:16:23;;;;;;;10.93;5.75;;;2.40;1.00;;;;;;5051242;28;20228;-78
2021/03/28 04:19:29;;;;;;;11.40;6.93;;;2.40;1.00;;;;;;5059936;28;21170;-80
2021/03/28 04:22:24;;;;;;;12.70;5.80;;;2.40;1.00;;;;;;5048002;28;20216;-78
2021/03/28 04:25:02;;;;;;;11.13;5.60;;;2.40;1.00;;;;;;5059769;28;20692;-78
2021/03/28 04:27:47;;;;;;;9.35;5.45;;;2.40;1.00;;;;;;5056177;28;20764;-77
2021/03/28 04:30:33;;;;;;;12.50;6.78;;;2.40;1.00;;;;;;5049792;28;20221;-79
2021/03/28 04:33:14;;;;;;;8.65;5.90;;;2.40;1.00;;;;;;5063401;28;20788;-79
2021/03/28 04:36:00;;;;;;;12.85;6.32;;;2.40;1.00;;;;;;5055173;28;20738;-79
2021/03/28 04:38:55;;;;;;;8.80;7.00;;;2.40;1.00;;;;;;5062446;28;20229;-79
2021/03/28 04:41:56;;;;;;;9.00;6.07;;;2.40;1.00;;;;;;5052900;28;21030;-78
2021/03/28 04:45:00;;;;;;;8.32;5.18;;;2.40;1.00;;;;;;5061936;28;20229;-79
2021/03/28 04:47:50;;;;;;;8.30;6.43;;;2.40;1.00;;;;;;5059398;28;20220;-77
2021/03/28 04:50:46;;;;;;;11.23;6.65;;;2.40;1.00;;;;;;5065225;28;20210;-78
2021/03/28 04:53:50;;;;;;;10.70;6.40;;;2.50;1.00;;;;;;5059595;28;20732;-79
2021/03/28 04:57:00;;;;;;;10.13;6.00;;;2.40;1.00;;;;;;5071569;28;20229;-79
2021/03/28 04:59:57;;;;;;;11.50;6.25;;;2.50;1.00;;;;;;5066939;28;20236;-79
2021/03/28 05:02:30;;;;;;;9.95;5.90;;;2.50;1.00;;;;;;5055967;28;20213;-79
2021/03/28 05:05:29;;;;;;;10.43;5.70;;;2.50;1.00;;;;;;5069952;28;20248;-79
2021/03/28 05:08:34;;;;;;;9.25;5.63;;;2.50;1.00;;;;;;5067782;28;20227;-78
2021/03/28 05:11:41;;;;;;;11.50;6.15;;;2.50;1.00;;;;;;5070590;28;20227;-79
2021/03/28 05:14:44;;;;;;;10.18;5.80;;;2.50;1.00;;;;;;5061836;28;20335;-79
2021/03/28 05:17:48;;;;;;;9.02;6.72;;;2.60;1.00;;;;;;5061039;28;20254;-78
2021/03/28 05:20:47;;;;;;;9.70;6.03;;;2.60;1.00;;;;;;5070521;28;20236;-79
2021/03/28 05:23:32;;;;;;;12.43;6.25;;;2.60;1.00;;;;;;5054106;28;20237;-79
2021/03/28 05:26:35;;;;;;;9.10;6.40;;;2.60;1.00;;;;;;5066371;28;20316;-78
2021/03/28 05:29:37;;;;;;;11.20;6.80;;;2.60;1.00;;;;;;5060367;28;20220;-78
2021/03/28 05:32:33;;;;;;;16.23;7.30;;;2.70;1.00;;;;;;5075964;28;20250;-78
2021/03/28 05:35:24;;;;;;;14.20;7.53;;;2.70;1.00;;;;;;5065103;28;20308;-78
2021/03/28 05:38:31;;;;;;;11.38;6.80;;;2.70;1.00;;;;;;5053856;28;21081;-78
2021/03/28 05:41:24;;;;;;;9.15;6.40;;;2.80;1.00;;;;;;5063146;28;20240;-77
2021/03/28 05:44:11;;;;;;;9.13;5.53;;;2.80;1.00;;;;;;5055402;28;21431;-80
2021/03/28 05:46:54;;;;;;;9.13;6.90;;;2.70;1.00;;;;;;5082560;28;20217;-80
2021/03/28 05:49:34;;;;;;;12.05;6.95;;;2.70;1.00;;;;;;5053181;28;20304;-79
2021/03/28 05:52:39;;;;;;;10.98;7.10;;;2.70;1.00;;;;;;5069717;28;20217;-79
2021/03/28 05:55:32;;;;;;;10.57;6.30;;;2.70;1.00;;;;;;5064596;28;20213;-78
2021/03/28 05:58:39;;;;;;;13.15;6.28;;;2.70;1.00;;;;;;5065957;28;20231;-78
2021/03/28 06:01:27;;;;;;;8.98;6.43;;;2.80;1.00;;;;;;5080234;28;20240;-78
2021/03/28 06:04:49;;;;;;;9.35;6.47;;;2.80;1.00;;;;;;5058493;28;20221;-78
2021/03/28 06:08:02;;;;;;;11.18;6.05;;;2.80;1.00;;;;;;5074324;28;20245;-77
2021/03/28 06:11:02;;;;;;;11.00;5.95;;;2.90;1.00;;;;;;5071007;28;20476;-77
2021/03/28 06:14:03;;;;;;;9.35;7.25;;;3.00;1.00;;;;;;5074588;28;20237;-78
2021/03/28 06:16:48;;;;;;;9.63;6.80;;;3.10;1.00;;;;;;5061151;28;20243;-78
2021/03/28 06:19:56;;;;;;;10.80;7.10;;;3.20;1.00;;;;;;5078939;28;20230;-79
2021/03/28 06:22:46;;;;;;;9.25;6.75;;;3.30;1.00;;;;;;5071126;28;20242;-79
2021/03/28 06:25:43;;;;;;;7.88;7.07;;;3.40;1.00;;;;;;5066301;28;20205;-80
2021/03/28 06:28:47;;;;;;;9.20;5.65;;;3.60;1.00;;;;;;5094087;28;20243;-82
2021/03/28 06:31:47;;;;;;;11.63;6.63;;;3.80;1.00;;;;;;5080192;28;20228;-80
2021/03/28 06:34:47;;;;;;;13.98;6.03;;;3.90;1.00;;;;;;5095475;28;20236;-78
2021/03/28 06:37:53;;;;;;;7.78;6.25;;;4.00;1.00;;;;;;5083909;28;20217;-79
2021/03/28 06:40:39;;;;;;;6.85;5.93;;;4.10;1.00;;;;;;5083509;28;20261;-79
2021/03/28 06:43:38;;;;;;;8.55;5.25;;;4.10;1.00;;;;;;5094154;28;20217;-80
2021/03/28 06:46:26;;;;;;;9.43;5.78;;;4.20;1.00;;;;;;5082718;28;20288;-80
2021/03/28 06:49:40;;;;;;;7.88;5.97;;;4.30;1.00;;;;;;5090184;28;20240;-80
2021/03/28 06:52:18;;;;;;;9.85;6.55;;;4.40;1.00;;;;;;5080985;28;20220;-80
2021/03/28 06:55:16;;;;;;;13.45;6.32;;;4.50;1.00;;;;;;5089884;28;20740;-79
2021/03/28 06:58:03;;;;;;;7.15;5.65;;;4.60;1.00;;;;;;5077975;28;20288;-81
2021/03/28 07:01:02;;;;;;;9.63;6.43;;;4.70;1.00;;;;;;5082224;28;20232;-79
2021/03/28 07:03:58;;;;;;;7.85;5.95;;;4.90;1.00;;;;;;5071349;28;20281;-79
2021/03/28 07:06:32;;;;;;;9.15;6.65;;;5.00;1.00;;;;;;5059287;28;20225;-78
2021/03/28 07:09:26;;;;;;;11.02;5.78;;;5.20;1.00;;;;;;5065008;28;20236;-78
2021/03/28 07:11:59;;;;;;;11.80;6.55;;;5.40;1.00;;;;;;5071283;28;20917;-80
2021/03/28 07:15:03;;;;;;;9.07;6.45;;;5.60;1.00;;;;;;5074580;28;20277;-79
2021/03/28 07:17:56;;;;;;;6.47;4.85;;;5.70;1.00;;;;;;5056839;28;20221;-79
2021/03/28 07:20:46;;;;;;;8.23;5.60;;;5.70;1.00;;;;;;5064344;28;20231;-80
2021/03/28 07:23:44;;;;;;;6.68;5.63;;;5.90;1.00;;;;;;5047259;28;20316;-81
2021/03/28 07:26:27;;;;;;;7.90;5.43;;;6.00;1.00;;;;;;5061846;28;20216;-81
2021/03/28 07:29:38;;;;;;;6.63;5.47;;;6.20;1.00;;;;;;5048658;28;20252;-78
2021/03/28 07:32:38;;;;;;;12.18;6.55;;;6.20;1.00;;;;;;5058692;28;20260;-77
2021/03/28 07:36:02;;;;;;;7.05;5.35;;;6.40;1.00;;;;;;5056069;28;20236;-78
2021/03/28 07:38:50;;;;;;;6.25;5.03;;;6.50;1.00;;;;;;5037892;28;20991;-78
2021/03/28 07:41:46;;;;;;;10.82;6.45;;;6.60;1.00;;;;;;5029641;28;20675;-78
2021/03/28 07:45:11;;;;;;;8.05;5.53;;;6.70;1.00;;;;;;5044611;28;20300;-77
2021/03/28 07:48:10;;;;;;;8.70;5.60;;;6.80;1.00;;;;;;5057178;28;20221;-75
2021/03/28 07:51:07;;;;;;;9.45;5.63;;;7.00;1.00;;;;;;5054019;28;20882;-77
2021/03/28 07:54:18;;;;;;;9.45;4.88;;;7.10;1.00;;;;;;5036421;28;20228;-78
2021/03/28 07:57:13;;;;;;;9.68;6.32;;;7.20;1.00;;;;;;5055688;28;20463;-76
2021/03/28 08:00:12;;;;;;;7.90;5.65;;;7.40;1.00;;;;;;5040343;28;21075;-77
2021/03/28 08:03:10;;;;;;;5.60;5.07;;;7.60;1.00;;;;;;5054258;28;20229;-78
2021/03/28 08:06:04;;;;;;;7.95;5.80;;;7.80;1.00;;;;;;5042117;28;20232;-79
2021/03/28 08:08:47;;;;;;;8.88;5.50;;;8.20;1.00;;;;;;5057032;28;20736;-79
2021/03/28 08:11:44;;;;;;;10.32;5.55;;;8.40;1.00;;;;;;5058097;28;20696;-78
2021/03/28 08:14:35;;;;;;;8.00;5.45;;;8.40;1.00;;;;;;5048618;28;20260;-78
2021/03/28 08:17:16;;;;;;;7.80;5.25;;;8.60;1.00;;;;;;5057320;28;20763;-77
2021/03/28 08:20:10;;;;;;;9.52;5.32;;;8.90;1.00;;;;;;5043800;28;20919;-78
2021/03/28 08:22:56;;;;;;;5.95;4.70;;;9.00;1.00;;;;;;5041149;28;20235;-78
2021/03/28 08:25:36;;;;;;;11.40;5.38;;;9.10;1.00;;;;;;5048288;28;20225;-77
2021/03/28 08:28:31;;;;;;;8.73;5.20;;;9.40;1.00;;;;;;5085339;28;20221;-79
2021/03/28 08:31:05;;;;;;;6.57;4.72;;;9.60;1.00;;;;;;5076196;28;20306;-77
2021/03/28 08:34:16;;;;;;;9.45;5.03;;;9.60;1.00;;;;;;5056195;28;20320;-79
2021/03/28 08:37:21;;;;;;;7.15;4.60;;;9.60;1.00;;;;;;5049609;28;21930;-78
2021/03/28 08:40:36;;;;;;;6.07;5.47;;;9.30;1.00;;;;;;5026869;28;20242;-79
2021/03/28 08:43:42;;;;;;;11.50;5.28;;;9.20;1.00;;;;;;4999394;28;20305;-79
2021/03/28 08:46:31;;;;;;;11.93;5.60;;;9.30;1.00;;;;;;5049562;28;20461;-81
2021/03/28 08:49:04;;;;;;;9.13;4.80;;;9.40;1.00;;;;;;5073788;28;20264;-82
2021/03/28 08:52:14;;;;;;;9.20;5.50;;;9.50;1.00;;;;;;5076103;28;20209;-86
2021/03/28 08:54:57;;;;;;;11.48;4.55;;;9.70;1.00;;;;;;5002423;28;20322;-82
2021/03/28 08:57:37;;;;;;;11.63;5.30;;;10.10;1.00;;;;;;5049525;28;20246;-81
2021/03/28 09:00:25;;;;;;;12.38;4.75;;;10.10;1.00;;;;;;5066444;28;20340;-82
2021/03/28 09:02:59;;;;;;;6.40;4.38;;;10.20;1.00;;;;;;5056882;28;20708;-80
2021/03/28 09:05:41;;;;;;;10.93;5.22;;;10.30;1.00;;;;;;5071382;28;20217;-80
2021/03/28 09:08:21;;;;;;;7.27;4.73;;;10.60;1.00;;;;;;5056160;28;20970;-80
2021/03/28 09:11:28;;;;;;;7.38;4.63;;;10.90;1.00;;;;;;5063214;28;20904;-79
2021/03/28 09:14:03;;;;;;;5.60;3.87;;;11.20;1.00;;;;;;5069620;28;20221;-80
2021/03/28 09:16:46;;;;;;;7.90;4.30;;;11.40;1.00;;;;;;5056300;28;20450;-80
2021/03/28 09:19:19;;;;;;;8.10;4.68;;;11.50;1.00;;;;;;5070494;28;21232;-80
2021/03/28 09:21:57;;;;;;;7.53;4.10;;;11.70;1.00;;;;;;5058622;28;20235;-80
2021/03/28 09:24:41;;;;;;;9.77;5.00;;;12.00;1.00;;;;;;5071432;28;20459;-82
2021/03/28 09:27:29;;;;;;;7.87;4.30;;;12.50;1.00;;;;;;5059617;28;20448;-81
2021/03/28 09:30:16;;;;;;;6.53;3.83;;;13.00;1.00;;;;;;5067657;28;20474;-82
2021/03/28 09:32:53;;;;;;;5.53;3.30;;;13.10;1.00;;;;;;5056555;28;20457;-82
2021/03/28 09:36:01;;;;;;;6.97;3.70;;;13.10;1.00;;;;;;5068997;28;21569;-83
2021/03/28 09:39:01;;;;;;;5.93;3.93;;;13.00;1.00;;;;;;5064402;28;20466;-80
2021/03/28 09:41:54;;;;;;;8.23;4.23;;;13.50;1.00;;;;;;5063051;28;20463;-83
2021/03/28 09:44:29;;;;;;;6.30;3.93;;;14.50;1.00;;;;;;5058168;28;20520;-79
2021/03/28 09:47:04;;;;;;;8.33;3.67;;;15.20;1.00;;;;;;5069090;28;20411;-81
2021/03/28 09:49:46;;;;;;;7.13;4.13;;;15.30;1.00;;;;;;5062223;28;20452;-81
2021/03/28 09:52:59;;;;;;;10.60;4.40;;;15.10;1.00;;;;;;5069859;28;20455;-81
2021/03/28 09:55:55;;;;;;;8.47;4.17;;;15.30;1.00;;;;;;5061884;28;20443;-81
2021/03/28 09:58:53;;;;;;;5.63;3.83;;;15.00;1.00;;;;;;5057556;28;20602;-81
2021/03/28 10:02:01;;;;;;;7.70;3.90;;;15.10;1.00;;;;;;5069319;28;20453;-80
2021/03/28 10:04:49;;;;;;;8.47;4.77;;;14.70;1.00;;;;;;5065354;28;20460;-84
2021/03/28 10:07:24;;;;;;;7.80;4.20;;;14.80;1.00;;;;;;5064566;28;20479;-82
2021/03/28 10:10:02;;;;;;;10.07;5.13;;;15.70;1.00;;;;;;5055907;28;20461;-81
2021/03/28 10:12:36;;;;;;;9.47;4.77;;;17.10;1.00;;;;;;5070635;28;20461;-81
2021/03/28 10:15:06;;;;;;;6.87;4.90;;;17.90;1.00;;;;;;5068729;28;20466;-80
2021/03/28 10:17:46;;;;;;;7.73;3.87;;;18.60;1.00;;;;;;5081453;28;20457;-82
2021/03/28 10:20:40;;;;;;;5.77;4.90;;;18.60;1.00;;;;;;5054267;28;20450;-81
2021/03/28 10:23:23;;;;;;;6.47;4.17;;;18.50;1.00;;;;;;5065047;28;20444;-81
2021/03/28 10:26:01;;;;;;;6.17;3.60;;;18.50;1.00;;;;;;5055530;28;20529;-81
2021/03/28 10:28:55;;;;;;;4.43;3.70;;;19.20;1.00;;;;;;5066792;28;21393;-82
2021/03/28 10:31:34;;;;;;;5.67;4.07;;;19.60;1.00;;;;;;5062474;28;20444;-80
2021/03/28 10:34:58;;;;;;;7.90;4.30;;;19.70;1.00;;;;;;5038051;28;20455;-81
2021/03/28 10:37:54;;;;;;;6.97;4.40;;;19.70;1.00;;;;;;5053123;28;21661;-84
2021/03/28 10:40:33;;;;;;;7.60;4.10;;;19.70;1.00;;;;;;5045121;28;21635;-82
2021/03/28 10:43:22;;;;;;;5.43;3.73;;;19.90;1.00;;;;;;5069287;28;20447;-83
2021/03/28 10:46:09;;;;;;;4.17;3.27;;;19.60;1.00;;;;;;5073246;28;20760;-82
2021/03/28 10:49:08;;;;;;;4.53;3.30;;;19.70;1.00;;;;;;5071895;28;20476;-82
2021/03/28 10:52:30;;;;;;;6.67;2.90;;;19.80;1.00;;;;;;5049258;28;21718;-83
2021/03/28 10:55:40;;;;;;;6.47;3.37;;;21.20;1.00;;;;;;5062082;28;20414;-85
2021/03/28 10:58:54;;;;;;;5.80;4.47;;;22.10;1.00;;;;;;5073427;28;20470;-79
2021/03/28 11:02:03;;;;;;;6.30;4.53;;;22.60;1.00;;;;;;5033427;28;20524;-84
2021/03/28 11:04:54;;;;;;;4.37;3.63;;;22.50;1.00;;;;;;5066854;28;20478;-82
2021/03/28 11:07:48;;;;;;;5.40;3.23;;;21.10;1.00;;;;;;5066078;28;20457;-81
2021/03/28 11:10:44;;;;;;;4.73;3.00;;;21.50;1.00;;;;;;5052377;28;21077;-82
2021/03/28 11:13:52;;;;;;;4.37;3.60;;;22.30;1.00;;;;;;5048997;28;20430;-82
2021/03/28 11:16:27;;;;;;;3.87;2.90;;;22.30;1.00;;;;;;5068930;28;20457;-81
2021/03/28 11:19:45;;;;;;;4.40;2.50;;;22.60;1.00;;;;;;5053582;28;20564;-82
2021/03/28 11:22:16;;;;;;;6.30;2.70;;;22.60;1.00;;;;;;5068975;28;20459;-81
2021/03/28 11:25:05;;;;;;;5.90;2.90;;;20.80;1.00;;;;;;5053749;28;20435;-81
2021/03/28 11:28:25;;;;;;;5.23;3.13;;;19.20;1.00;;;;;;5068647;28;20546;-82
2021/03/28 11:31:07;;;;;;;9.77;4.30;;;17.50;1.00;;;;;;5063219;28;20437;-81
2021/03/28 11:33:36;;;;;;;6.47;2.80;;;16.70;1.00;;;;;;5064584;28;20456;-80
2021/03/28 11:36:09;;;;;;;4.67;2.43;;;17.80;1.00;;;;;;5056936;28;20459;-80
2021/03/28 11:38:44;;;;;;;4.80;3.33;;;19.50;1.00;;;;;;5066247;28;21363;-79
2021/03/28 11:41:44;;;;;;;5.73;3.20;;;22.00;1.00;;;;;;5055109;28;20492;-80
2021/03/28 11:44:25;;;;;;;3.90;3.37;;;23.50;1.00;;;;;;5063134;28;20429;-79
2021/03/28 11:47:03;;;;;;;9.00;3.63;;;23.40;1.00;;;;;;5051441;28;20457;-80
2021/03/28 11:49:53;;;;;;;5.50;3.57;;;22.50;1.00;;;;;;5067721;28;20469;-81
2021/03/28 11:52:28;;;;;;;5.57;3.53;;;22.60;1.00;;;;;;5056737;28;20441;-80
2021/03/28 11:55:14;;;;;;;5.20;3.67;;;22.60;1.00;;;;;;5073943;28;20457;-80
2021/03/28 11:57:41;;;;;;;4.47;3.43;;;21.60;1.00;;;;;;5063023;28;20531;-80
2021/03/28 12:00:43;;;;;;;7.10;3.77;;;20.00;1.00;;;;;;5069955;28;21246;-79
2021/03/28 12:03:38;;;;;;;6.47;3.30;;;18.60;1.00;;;;;;5019364;28;20442;-79
2021/03/28 12:06:27;;;;;;;6.53;3.60;;;17.50;1.00;;;;;;5076060;28;20445;-81
2021/03/28 12:09:01;;;;;;;7.60;3.57;;;16.80;1.00;;;;;;5068076;28;20426;-80
2021/03/28 12:11:44;;;;;;;6.97;3.57;;;16.50;1.00;;;;;;5079131;28;20442;-81
2021/03/28 12:14:24;;;;;;;5.90;3.27;;;16.20;1.00;;;;;;5068702;28;20430;-79
2021/03/28 12:17:29;;;;;;;6.03;3.23;;;16.10;1.00;;;;;;5072175;28;20484;-83
2021/03/28 12:20:18;;;;;;;4.50;2.83;;;16.20;1.00;;;;;;5069901;28;20423;-80
2021/03/28 12:23:00;;;;;;;3.90;2.83;;;16.30;1.00;;;;;;5074610;28;20468;-79
2021/03/28 12:25:36;;;;;;;6.07;3.10;;;15.40;1.00;;;;;;5067007;28;20407;-79
2021/03/28 12:28:28;;;;;;;7.50;4.03;;;15.20;1.00;;;;;;5068041;28;20466;-81
2021/03/28 12:30:55;;;;;;;5.20;2.80;;;15.00;1.00;;;;;;5067323;28;20442;-81
2021/03/28 12:33:24;;;;;;;6.50;3.27;;;15.00;1.00;;;;;;5073730;28;20471;-79
2021/03/28 12:36:04;;;;;;;8.37;4.73;;;15.30;1.00;;;;;;5073866;28;20454;-81
2021/03/28 12:38:43;;;;;;;5.00;2.80;;;15.50;1.00;;;;;;5069443;28;20460;-81
2021/03/28 12:41:19;;;;;;;4.17;2.70;;;16.30;1.00;;;;;;5072958;28;21287;-80
2021/03/28 12:43:48;;;;;;;6.17;3.20;;;17.10;1.00;;;;;;5073798;28;20454;-82
2021/03/28 12:46:49;;;;;;;5.37;3.33;;;17.20;1.00;;;;;;5072141;28;20438;-81
2021/03/28 12:49:20;;;;;;;9.27;4.20;;;17.00;1.00;;;;;;5053682;28;20448;-81
2021/03/28 12:52:00;;;;;;;4.73;3.47;;;16.40;1.00;;;;;;5079862;28;20527;-80
2021/03/28 12:54:30;;;;;;;7.57;2.90;;;17.20;1.00;;;;;;5081453;28;20484;-81
2021/03/28 12:57:01;;;;;;;2.10;1.90;;;17.60;1.00;;;;;;5089498;28;20432;-83
2021/03/28 12:59:35;;;;;;;7.97;2.83;;;18.00;1.00;;;;;;5084671;28;20421;-81
2021/03/28 13:02:19;;;;;;;5.23;2.87;;;17.80;1.00;;;;;;5082231;28;21136;-80
2021/03/28 13:04:53;;;;;;;4.57;2.87;;;17.50;1.00;;;;;;5079893;28;20798;-80
2021/03/28 13:07:41;;;;;;;5.50;3.13;;;17.90;1.00;;;;;;5068458;28;20423;-81
2021/03/28 13:10:16;;;;;;;4.23;1.93;;;18.40;1.00;;;;;;5069992;28;20494;-81
2021/03/28 13:12:44;;;;;;;5.50;2.13;;;17.60;1.00;;;;;;5063275;28;20417;-81
2021/03/28 13:15:26;;;;;;;5.27;2.37;;;17.10;1.00;;;;;;5072227;28;20552;-79
2021/03/28 13:18:06;;;;;;;6.17;2.93;;;16.30;1.00;;;;;;5066924;28;20515;-81
2021/03/28 13:20:38;;;;;;;5.90;2.60;;;16.00;1.00;;;;;;5074135;28;20459;-81
2021/03/28 13:23:20;;;;;;;3.50;1.77;;;15.90;1.00;;;;;;5071489;28;20478;-80
2021/03/28 13:25:47;;;;;;;6.23;4.40;;;16.50;1.00;;;;;;5067811;28;20443;-81
2021/03/28 13:28:26;;;;;;;3.97;2.37;;;17.20;1.00;;;;;;5068525;28;20475;-80
2021/03/28 13:31:11;;;;;;;6.33;2.00;;;17.60;1.00;;;;;;5067539;28;20500;-81
2021/03/28 13:33:42;;;;;;;4.40;1.90;;;17.50;1.00;;;;;;5070798;28;20478;-78
2021/03/28 13:36:19;;;;;;;4.93;2.10;;;17.00;1.00;;;;;;5070774;28;20537;-81
2021/03/28 13:39:09;;;;;;;6.40;2.47;;;16.50;1.00;;;;;;5073935;28;20458;-80
2021/03/28 13:41:37;;;;;;;4.33;2.33;;;16.20;1.00;;;;;;5081135;28;20428;-80
2021/03/28 13:44:09;;;;;;;4.17;2.00;;;15.70;1.00;;;;;;5073065;28;20502;-79
2021/03/28 13:46:45;;;;;;;6.07;2.60;;;15.00;1.00;;;;;;5070648;28;20447;-80
2021/03/28 13:49:26;;;;;;;4.53;2.50;;;14.70;1.00;;;;;;5081666;28;20415;-79
2021/03/28 13:52:19;;;;;;;8.20;3.67;;;14.10;1.00;;;;;;5078608;28;20449;-79
2021/03/28 13:55:01;;;;;;;3.13;2.50;;;13.90;1.00;;;;;;5076528;28;20456;-80
2021/03/28 13:57:32;;;;;;;6.23;3.13;;;13.60;1.00;;;;;;5063384;28;20488;-79
2021/03/28 14:00:01;;;;;;;8.10;3.17;;;13.40;1.00;;;;;;5062568;28;21411;-79
2021/03/28 14:02:31;;;;;;;5.17;2.80;;;13.20;1.00;;;;;;5071256;28;20432;-78
2021/03/28 14:05:00;;;;;;;7.37;3.37;;;13.10;1.00;;;;;;5061489;28;20475;-79
2021/03/28 14:07:46;;;;;;;5.23;2.73;;;12.90;1.00;;;;;;5067016;28;21025;-81
2021/03/28 14:10:19;;;;;;;5.33;3.33;;;12.90;1.00;;;;;;5062780;28;20518;-80
2021/03/28 14:12:57;;;;;;;4.10;3.47;;;12.90;1.00;;;;;;5071449;28;21293;-82
2021/03/28 14:15:37;;;;;;;5.57;3.00;;;12.90;1.00;;;;;;5076170;28;20447;-81
2021/03/28 14:18:24;;;;;;;6.23;2.83;;;13.00;1.00;;;;;;5072622;28;20500;-80
2021/03/28 14:21:32;;;;;;;4.90;2.63;;;12.90;1.00;;;;;;5068469;28;20467;-80
2021/03/28 14:24:24;;;;;;;6.10;3.30;;;12.80;1.00;;;;;;5060718;28;20502;-81
2021/03/28 14:27:22;;;;;;;4.93;3.07;;;12.80;1.00;;;;;;5064367;28;21303;-81
2021/03/28 14:30:16;;;;;;;9.00;4.30;;;12.80;1.00;;;;;;5062863;28;21242;-81
2021/03/28 14:33:13;;;;;;;5.83;2.97;;;12.80;1.00;;;;;;5074578;28;20439;-80
2021/03/28 14:36:23;;;;;;;7.50;3.10;;;12.80;1.00;;;;;;5062984;28;20456;-80
2021/03/28 14:39:48;;;;;;;8.20;3.60;;;12.90;1.00;;;;;;5057509;28;20472;-81
2021/03/28 14:42:46;;;;;;;5.47;2.70;;;13.00;1.00;;;;;;5071664;28;20487;-80
2021/03/28 14:45:59;;;;;;;4.87;3.00;;;12.90;1.00;;;;;;5076806;28;20439;-81